createdAt,value
2023-01-07T00:01:39.066Z,51.98
2023-01-07T00:04:08.875Z,51.64
2023-01-07T00:06:39.780Z,52.22
2023-01-07T00:09:11.472Z,52.17
2023-01-07T00:11:41.307Z,52.46
2023-01-07T00:14:11.024Z,52.06
2023-01-07T00:16:41.591Z,51.55
2023-01-07T00:19:13.702Z,52.12
2023-01-07T00:21:41.397Z,51.97
2023-01-07T00:24:10.905Z,51.56
2023-01-07T00:26:39.197Z,52.25
2023-01-07T00:29:07.761Z,51.75
2023-01-07T00:31:38.579Z,51.83
2023-01-07T00:34:07.312Z,51.47
2023-01-07T00:36:45.091Z,51.40
2023-01-07T00:39:19.673Z,52.19
2023-01-07T00:42:07.222Z,52.00
2023-01-07T00:44:35.067Z,51.58
2023-01-07T00:47:02.695Z,51.39
2023-01-07T00:49:30.275Z,51.90
2023-01-07T00:51:57.745Z,51.53
2023-01-07T00:54:26.020Z,51.59
2023-01-07T00:56:53.548Z,51.76
2023-01-07T00:59:21.180Z,51.34
2023-01-07T01:01:48.875Z,51.30
2023-01-07T01:04:17.152Z,51.65
2023-01-07T01:06:44.634Z,52.09
2023-01-07T01:09:12.389Z,51.97
2023-01-07T01:11:42.021Z,52.00
2023-01-07T01:14:11.577Z,51.58
2023-01-07T01:16:39.200Z,51.48
2023-01-07T01:19:07.236Z,51.08
2023-01-07T01:21:37.323Z,51.79
2023-01-07T01:24:04.849Z,51.77
2023-01-07T01:26:32.353Z,51.88
2023-01-07T01:28:59.831Z,51.18
2023-01-07T01:31:27.375Z,51.09
2023-01-07T01:33:56.196Z,51.42
2023-01-07T01:36:24.695Z,51.15
2023-01-07T01:38:54.683Z,52.13
2023-01-07T01:41:22.358Z,52.12
2023-01-07T01:43:52.284Z,51.74
2023-01-07T01:46:42.129Z,51.31
2023-01-07T01:49:22.681Z,51.95
2023-01-07T01:52:02.328Z,51.12
2023-01-07T01:54:30.030Z,51.16
2023-01-07T01:57:02.866Z,51.37
2023-01-07T01:59:39.488Z,51.48
2023-01-07T02:02:11.160Z,51.40
2023-01-07T02:04:39.064Z,51.90
2023-01-07T02:07:13.970Z,52.08
2023-01-07T02:09:49.818Z,51.65
2023-01-07T02:12:55.394Z,51.79
2023-01-07T02:15:25.830Z,51.29
2023-01-07T02:18:15.166Z,51.79
2023-01-07T02:20:52.975Z,51.78
2023-01-07T02:24:00.706Z,51.08
2023-01-07T02:26:57.275Z,50.99
2023-01-07T02:29:54.667Z,51.63
2023-01-07T02:32:54.620Z,51.41
2023-01-07T02:36:03.323Z,51.41
2023-01-07T02:38:34.058Z,52.01
2023-01-07T02:41:29.131Z,51.83
2023-01-07T02:44:06.374Z,52.21
2023-01-07T02:46:38.972Z,51.76
2023-01-07T02:49:14.260Z,51.59
2023-01-07T02:51:43.053Z,52.24
2023-01-07T02:54:15.740Z,51.55
2023-01-07T02:57:08.933Z,51.99
2023-01-07T02:59:46.131Z,51.82
2023-01-07T03:02:38.469Z,51.38
2023-01-07T03:05:17.895Z,51.58
2023-01-07T03:08:01.556Z,51.14
2023-01-07T03:10:45.114Z,51.95
2023-01-07T03:13:19.740Z,51.38
2023-01-07T03:15:51.516Z,51.88
2023-01-07T03:18:27.577Z,51.75
2023-01-07T03:21:05.439Z,51.37
2023-01-07T03:23:36.358Z,51.79
2023-01-07T03:26:06.805Z,51.42
2023-01-07T03:28:40.734Z,51.62
2023-01-07T03:31:15.655Z,51.57
2023-01-07T03:33:56.915Z,51.30
2023-01-07T03:36:33.139Z,51.14
2023-01-07T03:39:02.716Z,51.19
2023-01-07T03:41:50.418Z,51.28
2023-01-07T03:44:18.593Z,51.28
2023-01-07T03:46:47.269Z,51.07
2023-01-07T03:49:15.474Z,51.78
2023-01-07T03:51:43.021Z,51.36
2023-01-07T03:54:10.526Z,51.21
2023-01-07T03:56:38.236Z,51.54
2023-01-07T03:59:05.763Z,51.65
2023-01-07T04:01:33.407Z,51.53
2023-01-07T04:04:19.893Z,51.50
2023-01-07T04:06:48.275Z,51.90
2023-01-07T04:09:18.927Z,51.35
2023-01-07T04:11:46.966Z,51.82
2023-01-07T04:14:15.225Z,51.35
2023-01-07T04:16:42.875Z,51.39
2023-01-07T04:19:10.775Z,51.57
2023-01-07T04:21:38.364Z,51.25
2023-01-07T04:24:07.411Z,50.92
2023-01-07T04:26:35.554Z,51.42
2023-01-07T04:29:03.849Z,50.85
2023-01-07T04:31:33.768Z,51.40
2023-01-07T04:34:01.259Z,50.76
2023-01-07T04:36:29.384Z,51.23
2023-01-07T04:38:57.589Z,50.59
2023-01-07T04:41:25.055Z,50.71
2023-01-07T04:43:52.628Z,50.43
2023-01-07T04:46:20.161Z,50.55
2023-01-07T04:48:48.516Z,50.80
2023-01-07T04:51:16.617Z,50.80
2023-01-07T04:53:51.807Z,50.86
2023-01-07T04:56:19.346Z,51.33
2023-01-07T04:58:47.908Z,50.74
2023-01-07T05:01:16.082Z,51.71
2023-01-07T05:03:43.935Z,51.59
2023-01-07T05:06:11.834Z,50.48
2023-01-07T05:08:39.929Z,51.27
2023-01-07T05:11:07.815Z,51.20
2023-01-07T05:13:36.628Z,51.05
2023-01-07T05:16:05.939Z,50.77
2023-01-07T05:18:33.870Z,50.67
2023-01-07T05:21:01.364Z,50.36
2023-01-07T05:23:29.334Z,50.20
2023-01-07T05:25:58.236Z,50.42
2023-01-07T05:28:25.739Z,50.12
2023-01-07T05:30:53.513Z,51.18
2023-01-07T05:33:25.533Z,50.45
2023-01-07T05:35:53.983Z,50.71
2023-01-07T05:38:22.196Z,50.30
2023-01-07T05:40:50.850Z,50.27
2023-01-07T05:43:23.873Z,50.42
2023-01-07T05:45:51.349Z,50.98
2023-01-07T05:48:18.852Z,50.97
2023-01-07T05:50:46.322Z,50.82
2023-01-07T05:53:13.987Z,50.89
2023-01-07T05:55:41.497Z,51.02
2023-01-07T05:58:09.419Z,50.50
2023-01-07T06:00:37.270Z,50.30
2023-01-07T06:03:05.137Z,50.71
2023-01-07T06:05:32.924Z,50.61
2023-01-07T06:08:00.375Z,50.74
2023-01-07T06:10:27.882Z,50.55
2023-01-07T06:12:55.327Z,50.45
2023-01-07T06:15:22.865Z,50.71
2023-01-07T06:17:50.469Z,50.63
2023-01-07T06:20:17.956Z,51.26
2023-01-07T06:22:45.483Z,51.17
2023-01-07T06:25:14.121Z,50.78
2023-01-07T06:27:42.151Z,50.60
2023-01-07T06:30:11.268Z,51.29
2023-01-07T06:32:40.907Z,51.10
2023-01-07T06:35:10.539Z,51.22
2023-01-07T06:37:38.823Z,50.57
2023-01-07T06:40:07.222Z,50.10
2023-01-07T06:42:35.188Z,50.59
2023-01-07T06:45:02.680Z,49.71
2023-01-07T06:47:31.018Z,50.58
2023-01-07T06:49:58.465Z,49.71
2023-01-07T06:52:25.937Z,50.24
2023-01-07T06:54:53.411Z,50.19
2023-01-07T06:57:20.906Z,49.93
2023-01-07T06:59:48.469Z,50.32
2023-01-07T07:02:21.709Z,50.50
2023-01-07T07:04:49.407Z,50.40
2023-01-07T07:07:17.319Z,49.56
2023-01-07T07:09:44.988Z,49.31
2023-01-07T07:12:12.775Z,49.08
2023-01-07T07:14:40.497Z,48.15
2023-01-07T07:17:08.024Z,47.83
2023-01-07T07:19:35.575Z,47.56
2023-01-07T07:22:04.681Z,47.70
2023-01-07T07:24:32.307Z,46.28
2023-01-07T07:27:00.313Z,45.65
2023-01-07T07:29:27.832Z,46.03
2023-01-07T07:31:55.322Z,45.74
2023-01-07T07:34:22.861Z,45.37
2023-01-07T07:36:50.369Z,44.70
2023-01-07T07:39:17.958Z,45.06
2023-01-07T07:41:45.403Z,44.29
2023-01-07T07:44:16.982Z,44.68
2023-01-07T07:46:44.530Z,44.39
2023-01-07T07:49:12.596Z,44.30
2023-01-07T07:51:40.123Z,44.41
2023-01-07T07:54:07.574Z,44.22
2023-01-07T07:56:35.173Z,44.06
2023-01-07T07:59:02.647Z,44.56
2023-01-07T08:01:30.241Z,44.02
2023-01-07T08:03:57.797Z,43.42
2023-01-07T08:06:25.241Z,43.04
2023-01-07T08:08:52.730Z,42.75
2023-01-07T08:11:20.305Z,41.88
2023-01-07T08:13:47.975Z,42.25
2023-01-07T08:16:15.536Z,41.79
2023-01-07T08:18:43.333Z,42.03
2023-01-07T08:21:10.842Z,40.89
2023-01-07T08:23:38.359Z,40.70
2023-01-07T08:26:06.058Z,40.43
2023-01-07T08:28:34.378Z,40.82
2023-01-07T08:31:03.990Z,40.22
2023-01-07T08:33:34.267Z,39.96
2023-01-07T08:36:03.581Z,40.73
2023-01-07T08:38:37.510Z,40.65
2023-01-07T08:41:05.080Z,41.36
2023-01-07T08:43:33.517Z,41.20
2023-01-07T08:46:01.018Z,41.15
2023-01-07T08:48:28.687Z,41.70
2023-01-07T08:50:56.244Z,41.80
2023-01-07T08:53:23.749Z,42.33
2023-01-07T08:55:51.221Z,42.33
2023-01-07T08:58:18.668Z,42.51
2023-01-07T09:00:46.168Z,43.09
2023-01-07T09:03:13.689Z,42.72
2023-01-07T09:05:41.192Z,43.18
2023-01-07T09:08:08.646Z,43.33
2023-01-07T09:10:36.095Z,43.74
2023-01-07T09:13:03.727Z,43.74
2023-01-07T09:15:31.269Z,43.86
2023-01-07T09:17:58.731Z,44.42
2023-01-07T09:20:26.187Z,44.32
2023-01-07T09:22:53.649Z,44.83
2023-01-07T09:25:21.115Z,44.44
2023-01-07T09:27:49.544Z,44.25
2023-01-07T09:30:17.323Z,44.88
2023-01-07T09:32:45.452Z,44.74
2023-01-07T09:35:13.467Z,44.90
2023-01-07T09:37:41.361Z,45.00
2023-01-07T09:40:15.598Z,45.45
2023-01-07T09:42:46.025Z,45.08
2023-01-07T09:45:25.288Z,45.37
2023-01-07T09:47:57.088Z,44.98
2023-01-07T09:50:43.249Z,45.01
2023-01-07T09:53:16.481Z,45.86
2023-01-07T09:56:11.372Z,45.95
2023-01-07T09:58:33.006Z,45.94
2023-01-07T10:01:07.154Z,46.08
2023-01-07T10:03:46.761Z,46.06
2023-01-07T10:06:42.760Z,46.12
2023-01-07T10:09:22.946Z,46.21
2023-01-07T10:12:03.620Z,46.42
2023-01-07T10:14:52.953Z,46.33
2023-01-07T10:17:43.301Z,46.27
2023-01-07T10:20:16.126Z,46.48
2023-01-07T10:22:54.163Z,46.54
2023-01-07T10:25:28.816Z,46.72
2023-01-07T10:28:03.131Z,46.27
2023-01-07T10:30:34.674Z,46.54
2023-01-07T10:33:19.821Z,46.48
2023-01-07T10:35:51.651Z,46.49
2023-01-07T10:38:20.991Z,46.39
2023-01-07T10:40:58.578Z,47.18
2023-01-07T10:43:34.741Z,46.55
2023-01-07T10:46:05.247Z,46.98
2023-01-07T10:48:44.799Z,46.68
2023-01-07T10:51:33.685Z,47.02
2023-01-07T10:54:22.740Z,46.71
2023-01-07T10:56:58.148Z,47.20
2023-01-07T10:59:26.051Z,46.64
2023-01-07T11:01:57.589Z,46.92
2023-01-07T11:04:26.546Z,46.49
2023-01-07T11:07:00.334Z,47.01
2023-01-07T11:09:32.555Z,47.34
2023-01-07T11:12:05.615Z,47.30
2023-01-07T11:14:36.221Z,47.19
2023-01-07T11:17:15.850Z,47.08
2023-01-07T11:19:46.218Z,47.36
2023-01-07T11:22:34.620Z,47.00
2023-01-07T11:25:23.236Z,47.45
2023-01-07T11:27:50.858Z,47.36
2023-01-07T11:30:26.737Z,47.51
2023-01-07T11:33:01.651Z,48.22
2023-01-07T11:35:29.648Z,48.37
2023-01-07T11:37:58.818Z,48.38
2023-01-07T11:40:31.696Z,48.14
2023-01-07T11:43:19.016Z,48.51
2023-01-07T11:46:20.201Z,48.50
2023-01-07T11:48:46.678Z,47.96
2023-01-07T11:51:14.304Z,48.35
2023-01-07T11:53:47.624Z,48.24
2023-01-07T11:56:25.522Z,48.89
2023-01-07T11:59:15.941Z,49.48
2023-01-07T12:01:55.103Z,48.70
2023-01-07T12:04:24.264Z,48.51
2023-01-07T12:06:55.169Z,48.94
2023-01-07T12:09:22.658Z,48.88
2023-01-07T12:11:51.059Z,48.64
2023-01-07T12:14:31.599Z,48.38
2023-01-07T12:17:22.246Z,48.08
2023-01-07T12:20:04.022Z,48.10
2023-01-07T12:22:37.446Z,48.33
2023-01-07T12:25:26.687Z,47.91
2023-01-07T12:28:14.902Z,48.14
2023-01-07T12:31:05.654Z,48.00
2023-01-07T12:33:58.761Z,48.51
2023-01-07T12:36:40.015Z,48.50
2023-01-07T12:39:20.865Z,48.29
2023-01-07T12:41:58.194Z,48.64
2023-01-07T12:44:25.961Z,48.69
2023-01-07T12:47:30.743Z,48.58
2023-01-07T12:50:18.243Z,49.18
2023-01-07T12:52:51.935Z,48.86
2023-01-07T12:55:24.658Z,48.58
2023-01-07T12:57:56.975Z,49.65
2023-01-07T13:00:29.802Z,49.20
2023-01-07T13:03:06.225Z,49.20
2023-01-07T13:05:46.693Z,50.05
2023-01-07T13:08:51.099Z,50.13
2023-01-07T13:11:41.008Z,49.43
2023-01-07T13:14:21.279Z,49.52
2023-01-07T13:16:49.434Z,49.75
2023-01-07T13:19:17.150Z,49.98
2023-01-07T13:21:49.127Z,50.02
2023-01-07T13:24:54.754Z,50.14
2023-01-07T13:27:36.285Z,50.33
2023-01-07T13:30:20.890Z,50.53
2023-01-07T13:33:29.041Z,51.14
2023-01-07T13:36:01.552Z,50.23
2023-01-07T13:38:56.509Z,50.39
2023-01-07T13:41:29.690Z,50.73
2023-01-07T13:44:15.739Z,50.73
2023-01-07T13:46:54.600Z,50.47
2023-01-07T13:49:31.900Z,50.87
2023-01-07T13:52:20.320Z,50.62
2023-01-07T13:54:50.648Z,50.74
2023-01-07T13:57:23.828Z,51.23
2023-01-07T13:59:56.019Z,50.66
2023-01-07T14:02:28.954Z,51.03
2023-01-07T14:05:05.539Z,50.57
2023-01-07T14:07:51.440Z,51.57
2023-01-07T14:10:34.033Z,51.14
2023-01-07T14:13:23.214Z,51.17
2023-01-07T14:16:01.193Z,51.13
2023-01-07T14:18:28.607Z,50.95
2023-01-07T14:21:18.478Z,50.37
2023-01-07T14:24:04.917Z,51.46
2023-01-07T14:26:43.739Z,50.89
2023-01-07T14:29:29.577Z,51.33
2023-01-07T14:32:39.284Z,50.78
2023-01-07T14:35:13.061Z,50.76
2023-01-07T14:37:47.122Z,51.01
2023-01-07T14:40:26.799Z,50.86
2023-01-07T14:42:55.534Z,51.05
2023-01-07T14:45:41.455Z,50.55
2023-01-07T14:48:08.908Z,50.88
2023-01-07T14:50:59.388Z,50.44
2023-01-07T14:53:36.076Z,50.46
2023-01-07T14:56:09.464Z,50.86
2023-01-07T14:58:44.322Z,50.57
2023-01-07T15:01:18.166Z,50.34
2023-01-07T15:04:13.275Z,50.79
2023-01-07T15:06:42.005Z,50.15
2023-01-07T15:09:36.237Z,51.03
2023-01-07T15:12:30.546Z,51.39
2023-01-07T15:15:32.094Z,51.07
2023-01-07T15:17:59.818Z,51.22
2023-01-07T15:20:39.483Z,51.35
2023-01-07T15:23:15.784Z,51.17
2023-01-07T15:26:02.037Z,51.29
2023-01-07T15:28:52.290Z,51.62
2023-01-07T15:31:36.878Z,51.45
2023-01-07T15:34:16.061Z,51.21
2023-01-07T15:36:47.029Z,51.00
2023-01-07T15:39:22.492Z,51.79
2023-01-07T15:41:54.954Z,50.87
2023-01-07T15:44:26.127Z,50.80
2023-01-07T15:46:54.292Z,50.57
2023-01-07T15:49:29.545Z,51.00
2023-01-07T15:51:59.830Z,51.00
2023-01-07T15:54:36.994Z,51.11
2023-01-07T15:57:11.545Z,50.69
2023-01-07T15:59:51.032Z,50.90
2023-01-07T16:02:43.637Z,50.76
2023-01-07T16:05:11.437Z,50.71
2023-01-07T16:08:01.517Z,51.36
2023-01-07T16:10:34.547Z,50.74
2023-01-07T16:13:15.529Z,50.60
2023-01-07T16:15:43.042Z,50.79
2023-01-07T16:18:10.410Z,51.39
2023-01-07T16:20:49.103Z,51.51
2023-01-07T16:23:26.027Z,51.54
2023-01-07T16:25:58.625Z,51.71
2023-01-07T16:28:33.153Z,51.67
2023-01-07T16:31:03.989Z,51.39
2023-01-07T16:33:33.586Z,51.97
2023-01-07T16:36:05.195Z,51.88
2023-01-07T16:38:36.578Z,51.85
2023-01-07T16:41:04.599Z,51.46
2023-01-07T16:43:41.255Z,51.52
2023-01-07T16:46:38.489Z,51.67
2023-01-07T16:49:11.791Z,51.67
2023-01-07T16:51:44.321Z,51.87
2023-01-07T16:54:28.748Z,52.04
2023-01-07T16:56:58.709Z,51.71
2023-01-07T16:59:35.727Z,52.10
2023-01-07T17:02:20.036Z,52.07
2023-01-07T17:04:47.714Z,52.23
2023-01-07T17:07:23.896Z,51.85
2023-01-07T17:10:00.409Z,52.21
2023-01-07T17:12:39.313Z,52.23
2023-01-07T17:15:45.517Z,52.15
2023-01-07T17:18:13.115Z,51.99
2023-01-07T17:20:51.353Z,52.32
2023-01-07T17:23:27.717Z,52.06
2023-01-07T17:26:24.015Z,52.41
2023-01-07T17:28:54.091Z,51.73
2023-01-07T17:31:23.553Z,52.49
2023-01-07T17:33:54.621Z,51.74
2023-01-07T17:36:25.338Z,51.84
2023-01-07T17:38:53.590Z,52.23
2023-01-07T17:41:41.201Z,51.55
2023-01-07T17:44:12.700Z,51.97
2023-01-07T17:46:41.221Z,51.90
2023-01-07T17:49:11.215Z,52.62
2023-01-07T17:51:41.663Z,52.21
2023-01-07T17:54:23.745Z,52.11
2023-01-07T17:56:52.587Z,52.05
2023-01-07T17:59:22.481Z,52.47
2023-01-07T18:01:55.147Z,52.69
2023-01-07T18:04:23.198Z,52.23
2023-01-07T18:06:50.640Z,52.94
2023-01-07T18:09:18.146Z,53.02
2023-01-07T18:12:04.806Z,52.77
2023-01-07T18:14:32.801Z,52.86
2023-01-07T18:17:00.441Z,53.54
2023-01-07T18:19:27.924Z,52.65
2023-01-07T18:21:55.365Z,52.75
2023-01-07T18:24:22.933Z,52.94
2023-01-07T18:26:50.547Z,53.80
2023-01-07T18:29:18.041Z,53.44
2023-01-07T18:31:45.677Z,53.73
2023-01-07T18:34:15.317Z,53.22
2023-01-07T18:36:42.895Z,53.65
2023-01-07T18:39:18.199Z,53.36
2023-01-07T18:41:48.862Z,53.51
2023-01-07T18:44:21.050Z,53.92
2023-01-07T18:46:48.496Z,53.30
2023-01-07T18:49:18.880Z,53.54
2023-01-07T18:51:47.967Z,53.61
2023-01-07T18:54:15.841Z,53.66
2023-01-07T18:56:45.957Z,53.81
2023-01-07T18:59:13.825Z,53.69
2023-01-07T19:01:41.661Z,53.77
2023-01-07T19:04:09.424Z,54.07
2023-01-07T19:06:37.024Z,54.13
2023-01-07T19:09:04.569Z,54.42
2023-01-07T19:11:32.034Z,54.53
2023-01-07T19:14:02.106Z,54.63
2023-01-07T19:16:29.606Z,53.97
2023-01-07T19:18:57.243Z,53.73
2023-01-07T19:21:26.712Z,54.04
2023-01-07T19:23:54.623Z,53.71
2023-01-07T19:26:22.314Z,53.74
2023-01-07T19:28:49.791Z,53.65
2023-01-07T19:31:17.283Z,53.67
2023-01-07T19:33:44.746Z,53.48
2023-01-07T19:36:13.583Z,53.90
2023-01-07T19:38:44.030Z,54.39
2023-01-07T19:41:15.015Z,54.67
2023-01-07T19:43:43.482Z,54.57
2023-01-07T19:46:12.205Z,54.72
2023-01-07T19:48:39.755Z,54.44
2023-01-07T19:51:07.893Z,54.62
2023-01-07T19:53:35.901Z,54.42
2023-01-07T19:56:06.622Z,55.25
2023-01-07T19:58:34.875Z,54.50
2023-01-07T20:01:10.825Z,55.03
2023-01-07T20:03:39.197Z,54.28
2023-01-07T20:06:10.147Z,54.03
2023-01-07T20:08:38.440Z,54.21
2023-01-07T20:11:06.559Z,53.83
2023-01-07T20:13:36.016Z,53.14
2023-01-07T20:16:13.130Z,53.31
2023-01-07T20:18:43.091Z,53.18
2023-01-07T20:21:12.470Z,53.20
2023-01-07T20:23:41.496Z,53.66
2023-01-07T20:26:14.675Z,53.63
2023-01-07T20:28:42.303Z,53.16
2023-01-07T20:31:13.167Z,53.39
2023-01-07T20:33:42.061Z,53.62
2023-01-07T20:36:12.787Z,53.34
2023-01-07T20:38:40.628Z,53.89
2023-01-07T20:41:13.122Z,54.02
2023-01-07T20:43:40.679Z,53.29
2023-01-07T20:46:09.150Z,53.81
2023-01-07T20:48:37.634Z,53.75
2023-01-07T20:51:07.681Z,53.80
2023-01-07T20:53:37.033Z,54.28
2023-01-07T20:56:05.567Z,54.10
2023-01-07T20:58:34.647Z,54.45
2023-01-07T21:01:04.439Z,54.42
2023-01-07T21:03:32.089Z,54.76
2023-01-07T21:05:59.683Z,54.78
2023-01-07T21:08:27.711Z,54.37
2023-01-07T21:10:55.428Z,54.54
2023-01-07T21:13:23.450Z,54.40
2023-01-07T21:15:51.888Z,54.67
2023-01-07T21:18:19.786Z,54.97
2023-01-07T21:20:48.110Z,55.41
2023-01-07T21:23:15.582Z,55.15
2023-01-07T21:25:48.116Z,55.58
2023-01-07T21:28:15.844Z,55.55
2023-01-07T21:30:43.699Z,55.24
2023-01-07T21:33:11.222Z,55.44
2023-01-07T21:35:42.074Z,55.38
2023-01-07T21:38:09.653Z,55.43
2023-01-07T21:40:38.741Z,55.48
2023-01-07T21:43:06.410Z,55.47
2023-01-07T21:45:33.975Z,56.19
2023-01-07T21:48:01.471Z,55.84
2023-01-07T21:50:28.958Z,55.75
2023-01-07T21:52:56.492Z,55.19
2023-01-07T21:55:23.997Z,55.40
2023-01-07T21:57:51.466Z,55.21
2023-01-07T22:00:19.025Z,55.23
2023-01-07T22:02:46.517Z,55.64
2023-01-07T22:05:14.085Z,55.11
2023-01-07T22:07:41.513Z,55.44
2023-01-07T22:10:09.983Z,55.39
2023-01-07T22:12:37.436Z,56.00
2023-01-07T22:15:05.393Z,56.12
2023-01-07T22:17:32.882Z,55.73
2023-01-07T22:20:00.326Z,56.00
2023-01-07T22:22:27.815Z,55.93
2023-01-07T22:24:57.810Z,56.24
2023-01-07T22:27:25.285Z,55.35
2023-01-07T22:29:52.853Z,55.56
2023-01-07T22:32:20.324Z,55.63
2023-01-07T22:34:47.893Z,55.35
2023-01-07T22:37:18.158Z,55.18
2023-01-07T22:39:54.250Z,55.25
2023-01-07T22:42:44.928Z,55.50
2023-01-07T22:45:21.341Z,54.81
2023-01-07T22:47:51.097Z,55.36
2023-01-07T22:50:19.056Z,55.76
2023-01-07T22:52:47.089Z,55.61
2023-01-07T22:55:14.639Z,55.72
2023-01-07T22:57:42.225Z,55.85
2023-01-07T23:00:37.937Z,56.18
2023-01-07T23:03:05.492Z,56.38
2023-01-07T23:05:34.983Z,55.78
2023-01-07T23:08:02.622Z,55.72
2023-01-07T23:10:30.084Z,55.90
2023-01-07T23:12:57.591Z,56.33
2023-01-07T23:15:25.092Z,55.85
2023-01-07T23:17:52.583Z,56.82
2023-01-07T23:20:20.030Z,56.07
2023-01-07T23:22:50.135Z,56.20
2023-01-07T23:25:17.720Z,55.22
2023-01-07T23:27:47.551Z,55.36
2023-01-07T23:30:15.100Z,55.17
2023-01-07T23:32:42.663Z,55.26
2023-01-07T23:35:10.134Z,55.87
2023-01-07T23:37:37.607Z,55.57
2023-01-07T23:40:06.450Z,54.86
2023-01-07T23:42:34.322Z,54.31
2023-01-07T23:45:02.316Z,54.50
2023-01-07T23:47:31.012Z,54.90
2023-01-07T23:50:01.312Z,54.64
2023-01-07T23:52:29.700Z,54.57
2023-01-07T23:54:57.218Z,54.85
2023-01-07T23:57:25.108Z,55.46
2023-01-07T23:59:52.574Z,54.63
